Time;durP1;ratioP1;P1;durP2;ratioP2;P2;SDS_P1;SDS_P2;PMS_P1;PMS_P2;Temp;Humidity;BMP_temperature;BMP_pressure;BME280_temperature;BME280_humidity;BME280_pressure;Samples;Min_cycle;Max_cycle;Signal;HPM_P1;HPM_P2
2021/11/07 00:04:59;;;;;;;;;;;15.20;69.90;;;;;;5039129;28;88088;-48
2021/11/07 00:10:56;;;;;;;;;;;15.20;69.90;;;;;;5040439;28;87478;-47
2021/11/07 00:13:01;;;;;;;;;;;15.20;70.00;;;;;;5034119;28;89675;-48
2021/11/07 00:15:26;;;;;;;;;;;15.10;69.90;;;;;;5041180;27;89113;-49
2021/11/07 00:17:54;;;;;;;;;;;15.10;70.50;;;;;;5039838;28;89105;-47
2021/11/07 00:20:30;;;;;;;;;;;15.10;69.90;;;;;;5038581;28;87159;-49
2021/11/07 00:25:39;;;;;;;;;;;15.10;69.90;;;;;;5039198;27;87321;-47
2021/11/07 00:28:09;;;;;;;;;;;15.10;69.90;;;;;;5041830;27;87203;-47
2021/11/07 00:30:53;;;;;;;;;;;15.00;70.00;;;;;;5041654;27;89322;-47
2021/11/07 00:34:07;;;;;;;;;;;15.00;70.00;;;;;;5038943;27;90294;-47
2021/11/07 00:36:48;;;;;;;;;;;15.10;70.00;;;;;;5042175;28;87132;-47
2021/11/07 00:48:59;;;;;;;;;;;15.00;69.90;;;;;;5040062;28;87175;-50
2021/11/07 00:51:38;;;;;;;;;;;15.00;70.00;;;;;;5038188;28;87371;-47
2021/11/07 00:56:37;;;;;;;;;;;15.00;70.00;;;;;;5037079;27;88917;-46
2021/11/07 01:01:33;;;;;;;;;;;14.90;70.00;;;;;;5039136;27;88400;-47
2021/11/07 01:04:01;;;;;;;;;;;14.90;70.00;;;;;;5038734;27;88939;-46
2021/11/07 01:06:27;;;;;;;;;;;14.90;70.00;;;;;;5037694;27;88852;-48
2021/11/07 01:08:52;;;;;;;;;;;14.90;70.10;;;;;;5038057;27;87151;-49
2021/11/07 01:11:18;;;;;;;;;;;14.90;70.00;;;;;;5039016;27;89318;-47
2021/11/07 01:13:44;;;;;;;;;;;14.90;70.00;;;;;;5039683;27;89631;-47
2021/11/07 01:16:09;;;;;;;;;;;14.90;70.10;;;;;;5041446;27;86403;-47
2021/11/07 01:18:35;;;;;;;;;;;14.90;70.10;;;;;;5041775;28;87134;-48
2021/11/07 01:21:01;;;;;;;;;;;14.80;70.00;;;;;;5043718;27;88302;-48
2021/11/07 01:23:38;;;;;;;;;;;14.80;70.00;;;;;;5040445;27;88821;-49
2021/11/07 01:26:19;;;;;;;;;;;14.80;70.00;;;;;;5038219;27;89482;-48
2021/11/07 01:28:49;;;;;;;;;;;14.80;70.00;;;;;;5037395;27;87136;-49
2021/11/07 01:31:15;;;;;;;;;;;14.80;69.90;;;;;;5039329;27;87159;-48
2021/11/07 01:33:41;;;;;;;;;;;14.80;70.00;;;;;;5039641;27;90006;-48
2021/11/07 01:38:40;;;;;;;;;;;14.70;70.00;;;;;;5038712;27;87478;-49
2021/11/07 01:41:22;;;;;;;;;;;14.70;70.00;;;;;;5040513;27;88733;-49
2021/11/07 01:43:49;;;;;;;;;;;14.70;70.00;;;;;;5042112;28;87143;-49
2021/11/07 01:48:53;;;;;;;;;;;14.70;70.00;;;;;;5038156;28;88860;-50
2021/11/07 01:51:21;;;;;;;;;;;14.70;70.10;;;;;;5037597;28;90455;-48
2021/11/07 01:53:47;;;;;;;;;;;14.70;70.00;;;;;;5038372;27;90004;-48
2021/11/07 01:56:13;;;;;;;;;;;14.70;70.10;;;;;;5039277;27;88826;-49
2021/11/07 01:58:40;;;;;;;;;;;14.70;70.00;;;;;;5041254;27;88904;-49
2021/11/07 02:01:06;;;;;;;;;;;14.70;70.10;;;;;;5040435;27;88726;-48
2021/11/07 02:03:32;;;;;;;;;;;14.60;70.10;;;;;;5041521;28;88781;-48
2021/11/07 02:05:58;;;;;;;;;;;14.60;70.10;;;;;;5037454;27;87846;-48
2021/11/07 02:08:24;;;;;;;;;;;14.60;70.10;;;;;;5035600;27;88686;-49
2021/11/07 02:10:50;;;;;;;;;;;14.60;70.10;;;;;;5036928;27;88643;-48
2021/11/07 02:13:16;;;;;;;;;;;14.60;70.10;;;;;;5036974;27;89061;-48
2021/11/07 02:15:42;;;;;;;;;;;14.60;70.10;;;;;;5037179;27;87189;-48
2021/11/07 02:18:08;;;;;;;;;;;14.60;70.10;;;;;;5036892;27;87478;-48
2021/11/07 02:20:36;;;;;;;;;;;14.60;70.10;;;;;;5035729;28;88322;-49
2021/11/07 02:23:06;;;;;;;;;;;14.60;70.10;;;;;;5038897;27;87120;-48
2021/11/07 02:25:32;;;;;;;;;;;14.50;70.10;;;;;;5042644;27;88745;-48
2021/11/07 02:27:58;;;;;;;;;;;14.50;70.10;;;;;;5040926;27;87193;-49
2021/11/07 02:30:24;;;;;;;;;;;14.50;70.10;;;;;;5040398;27;88589;-48
2021/11/07 02:32:50;;;;;;;;;;;14.50;70.10;;;;;;5039146;28;87824;-48
2021/11/07 02:35:17;;;;;;;;;;;14.50;70.10;;;;;;5037929;28;87113;-50
2021/11/07 02:37:43;;;;;;;;;;;14.50;70.20;;;;;;5035336;27;90142;-49
2021/11/07 02:40:10;;;;;;;;;;;14.50;70.20;;;;;;5036186;27;87842;-48
2021/11/07 02:42:37;;;;;;;;;;;14.50;70.20;;;;;;5039525;27;88809;-48
2021/11/07 02:45:03;;;;;;;;;;;14.50;70.20;;;;;;5040419;27;88992;-49
2021/11/07 02:47:28;;;;;;;;;;;14.50;70.20;;;;;;5041465;27;90197;-48
2021/11/07 02:49:54;;;;;;;;;;;14.40;70.20;;;;;;5038570;28;87913;-49
2021/11/07 02:52:20;;;;;;;;;;;14.50;70.20;;;;;;5038473;27;89686;-49
2021/11/07 02:54:45;;;;;;;;;;;14.40;70.20;;;;;;5040390;27;86415;-49
2021/11/07 02:57:12;;;;;;;;;;;14.40;70.30;;;;;;5040521;27;87501;-49
2021/11/07 02:59:40;;;;;;;;;;;14.40;70.20;;;;;;5037877;27;89531;-48
2021/11/07 03:02:06;;;;;;;;;;;14.40;70.30;;;;;;5036777;27;89099;-49
2021/11/07 03:04:32;;;;;;;;;;;14.40;70.30;;;;;;5035663;27;89474;-48
2021/11/07 03:06:58;;;;;;;;;;;14.40;70.20;;;;;;5035958;27;88182;-49
2021/11/07 03:09:25;;;;;;;;;;;14.40;70.20;;;;;;5039911;27;87224;-48
2021/11/07 03:11:53;;;;;;;;;;;14.40;70.30;;;;;;5037385;28;88939;-50
2021/11/07 03:14:20;;;;;;;;;;;14.40;70.20;;;;;;5037228;27;87100;-49
2021/11/07 03:16:46;;;;;;;;;;;14.40;70.20;;;;;;5037087;27;88852;-48
2021/11/07 03:19:13;;;;;;;;;;;14.30;70.20;;;;;;5039225;28;88014;-49
2021/11/07 03:21:39;;;;;;;;;;;14.30;70.20;;;;;;5042447;27;87196;-48
2021/11/07 03:24:05;;;;;;;;;;;14.30;70.30;;;;;;5039381;27;88890;-48
2021/11/07 03:26:33;;;;;;;;;;;14.40;70.20;;;;;;5039444;28;88961;-49
2021/11/07 03:29:01;;;;;;;;;;;14.30;70.20;;;;;;5041485;28;87184;-48
2021/11/07 03:31:36;;;;;;;;;;;14.30;70.30;;;;;;5041416;27;88837;-48
2021/11/07 03:34:06;;;;;;;;;;;14.30;70.30;;;;;;5040393;27;87167;-48
2021/11/07 03:36:42;;;;;;;;;;;14.20;70.20;;;;;;5042805;27;87156;-49
2021/11/07 03:39:08;;;;;;;;;;;14.30;70.20;;;;;;5042716;27;89436;-49
2021/11/07 03:41:34;;;;;;;;;;;14.30;70.30;;;;;;5042441;28;87153;-48
2021/11/07 03:43:59;;;;;;;;;;;14.30;70.30;;;;;;5042045;28;87264;-48
2021/11/07 03:46:25;;;;;;;;;;;14.20;70.20;;;;;;5040655;28;88421;-50
2021/11/07 03:48:51;;;;;;;;;;;14.20;70.20;;;;;;5041262;27;87207;-48
2021/11/07 03:51:17;;;;;;;;;;;14.20;70.20;;;;;;5039065;27;89224;-48
2021/11/07 03:53:43;;;;;;;;;;;14.20;70.20;;;;;;5043017;28;88103;-49
2021/11/07 03:56:08;;;;;;;;;;;14.20;70.20;;;;;;5041354;27;88776;-49
2021/11/07 03:58:34;;;;;;;;;;;14.20;70.30;;;;;;5041966;27;87704;-48
2021/11/07 04:00:59;;;;;;;;;;;14.20;70.20;;;;;;5042875;28;87194;-48
2021/11/07 04:03:25;;;;;;;;;;;14.20;70.30;;;;;;5039848;27;88009;-49
2021/11/07 04:05:51;;;;;;;;;;;14.20;70.30;;;;;;5041792;28;87940;-48
2021/11/07 04:08:16;;;;;;;;;;;14.20;70.20;;;;;;5043378;27;86376;-49
2021/11/07 04:10:42;;;;;;;;;;;14.10;70.20;;;;;;5041202;28;87230;-49
2021/11/07 04:13:08;;;;;;;;;;;14.10;70.30;;;;;;5040936;28;88134;-49
2021/11/07 04:15:34;;;;;;;;;;;14.10;70.30;;;;;;5040381;27;89840;-49
2021/11/07 04:18:00;;;;;;;;;;;14.10;70.30;;;;;;5042517;28;87132;-50
2021/11/07 04:20:25;;;;;;;;;;;14.10;70.30;;;;;;5043063;28;87178;-50
2021/11/07 04:22:51;;;;;;;;;;;14.10;70.30;;;;;;5041876;28;87360;-48
2021/11/07 04:25:16;;;;;;;;;;;14.10;70.20;;;;;;5041965;27;89228;-49
2021/11/07 04:27:42;;;;;;;;;;;14.10;70.40;;;;;;5041766;28;87143;-49
2021/11/07 04:30:09;;;;;;;;;;;14.00;70.20;;;;;;5039535;27;88569;-48
2021/11/07 04:32:34;;;;;;;;;;;14.00;70.30;;;;;;5038696;28;87429;-48
2021/11/07 04:35:00;;;;;;;;;;;14.00;70.20;;;;;;5040572;27;87288;-49
2021/11/07 04:37:26;;;;;;;;;;;14.00;70.20;;;;;;5037644;27;89579;-48
2021/11/07 04:39:52;;;;;;;;;;;14.10;70.30;;;;;;5039339;27;89771;-49
2021/11/07 04:42:17;;;;;;;;;;;14.00;70.20;;;;;;5042435;28;87932;-48
2021/11/07 04:44:43;;;;;;;;;;;14.00;70.20;;;;;;5042246;27;88185;-48
2021/11/07 04:47:09;;;;;;;;;;;14.00;70.40;;;;;;5041641;27;87182;-51
2021/11/07 04:49:35;;;;;;;;;;;14.00;70.40;;;;;;5042133;28;87589;-48
2021/11/07 04:52:00;;;;;;;;;;;14.00;70.40;;;;;;5040749;27;87300;-49
2021/11/07 04:54:27;;;;;;;;;;;14.00;70.40;;;;;;5041262;27;87174;-49
2021/11/07 04:56:52;;;;;;;;;;;13.90;70.30;;;;;;5043242;27;88416;-49
2021/11/07 04:59:18;;;;;;;;;;;13.90;70.30;;;;;;5041492;27;87201;-48
2021/11/07 05:01:43;;;;;;;;;;;13.90;70.40;;;;;;5040809;28;87506;-48
2021/11/07 05:04:09;;;;;;;;;;;13.90;70.30;;;;;;5039313;28;89655;-48
2021/11/07 05:06:35;;;;;;;;;;;13.90;70.30;;;;;;5041509;28;87165;-49
2021/11/07 05:09:01;;;;;;;;;;;13.80;70.40;;;;;;5039984;28;87150;-48
2021/11/07 05:11:27;;;;;;;;;;;13.90;70.50;;;;;;5038592;28;88091;-48
2021/11/07 05:13:52;;;;;;;;;;;13.90;70.50;;;;;;5037418;27;87119;-48
2021/11/07 05:16:18;;;;;;;;;;;13.80;70.40;;;;;;5037460;27;87996;-48
2021/11/07 05:18:44;;;;;;;;;;;13.80;70.40;;;;;;5039470;27;89367;-48
2021/11/07 05:21:10;;;;;;;;;;;13.80;70.40;;;;;;5040140;28;88643;-49
2021/11/07 05:23:36;;;;;;;;;;;13.80;70.40;;;;;;5041064;28;88317;-49
2021/11/07 05:26:02;;;;;;;;;;;13.90;70.40;;;;;;5040958;27;87128;-49
2021/11/07 05:28:28;;;;;;;;;;;13.80;70.30;;;;;;5040757;27;89012;-49
2021/11/07 05:30:53;;;;;;;;;;;13.80;70.30;;;;;;5040196;28;87418;-48
2021/11/07 05:33:19;;;;;;;;;;;13.80;70.40;;;;;;5039993;28;87245;-49
2021/11/07 05:35:45;;;;;;;;;;;13.80;70.40;;;;;;5039472;28;89135;-48
2021/11/07 05:38:11;;;;;;;;;;;13.80;70.30;;;;;;5039073;27;88333;-50
2021/11/07 05:40:37;;;;;;;;;;;13.80;70.50;;;;;;5041242;27;87151;-48
2021/11/07 05:43:03;;;;;;;;;;;13.80;70.50;;;;;;5036132;27;89396;-49
2021/11/07 05:45:28;;;;;;;;;;;13.80;70.40;;;;;;5038837;28;87204;-50
2021/11/07 05:47:54;;;;;;;;;;;13.80;70.50;;;;;;5041729;27;88599;-50
2021/11/07 05:50:20;;;;;;;;;;;13.70;70.50;;;;;;5040501;27;89837;-49
2021/11/07 05:52:46;;;;;;;;;;;13.70;70.40;;;;;;5039189;27;88160;-48
2021/11/07 05:55:12;;;;;;;;;;;13.70;70.50;;;;;;5039464;27;89954;-49
2021/11/07 05:57:38;;;;;;;;;;;13.70;71.00;;;;;;5037935;27;87711;-48
2021/11/07 06:00:06;;;;;;;;;;;13.70;70.50;;;;;;5036543;28;87138;-47
2021/11/07 06:02:31;;;;;;;;;;;13.70;70.50;;;;;;5041696;27;89429;-48
2021/11/07 06:04:57;;;;;;;;;;;13.70;70.50;;;;;;5040093;27;88557;-49
2021/11/07 06:07:22;;;;;;;;;;;13.70;70.50;;;;;;5041094;27;88108;-48
2021/11/07 06:09:48;;;;;;;;;;;13.70;70.50;;;;;;5039927;28;87411;-49
2021/11/07 06:12:14;;;;;;;;;;;13.70;70.50;;;;;;5040827;28;87371;-48
2021/11/07 06:14:40;;;;;;;;;;;13.70;70.50;;;;;;5040619;27;88431;-49
2021/11/07 06:17:05;;;;;;;;;;;13.70;70.50;;;;;;5038011;28;89202;-47
2021/11/07 06:19:31;;;;;;;;;;;13.70;70.40;;;;;;5040340;27;88432;-49
2021/11/07 06:21:57;;;;;;;;;;;13.70;70.60;;;;;;5042806;27;88623;-49
2021/11/07 06:24:27;;;;;;;;;;;13.60;70.50;;;;;;5039274;27;87215;-48
2021/11/07 06:26:55;;;;;;;;;;;13.60;70.50;;;;;;5039021;27;88969;-48
2021/11/07 06:29:20;;;;;;;;;;;13.60;70.60;;;;;;5037778;27;88005;-48
2021/11/07 06:31:47;;;;;;;;;;;13.60;70.60;;;;;;5041009;27;87776;-49
2021/11/07 06:34:12;;;;;;;;;;;13.60;70.60;;;;;;5039999;27;88739;-49
2021/11/07 06:36:38;;;;;;;;;;;13.60;70.60;;;;;;5038613;28;88238;-48
2021/11/07 06:39:03;;;;;;;;;;;13.60;70.60;;;;;;5038015;28;87183;-48
2021/11/07 06:41:29;;;;;;;;;;;13.60;70.60;;;;;;5036605;28;88051;-49
2021/11/07 06:43:54;;;;;;;;;;;13.60;70.70;;;;;;5039450;27;88671;-49
2021/11/07 06:46:22;;;;;;;;;;;13.60;70.60;;;;;;5037100;28;87168;-48
2021/11/07 06:48:48;;;;;;;;;;;13.60;70.60;;;;;;5039668;27;89433;-49
2021/11/07 06:51:14;;;;;;;;;;;13.60;70.70;;;;;;5039387;27;87168;-48
2021/11/07 06:53:40;;;;;;;;;;;13.60;70.70;;;;;;5041072;28;87277;-50
2021/11/07 06:56:06;;;;;;;;;;;13.50;70.70;;;;;;5043767;28;87673;-48
2021/11/07 06:58:32;;;;;;;;;;;13.50;70.70;;;;;;5043310;28;86430;-49
2021/11/07 07:00:57;;;;;;;;;;;13.50;70.70;;;;;;5044175;28;87161;-49
2021/11/07 07:03:23;;;;;;;;;;;13.50;70.70;;;;;;5043327;28;87579;-49
2021/11/07 07:05:48;;;;;;;;;;;13.50;70.70;;;;;;5045414;28;88140;-49
2021/11/07 07:08:19;;;;;;;;;;;13.60;70.70;;;;;;5043518;27;89451;-48
2021/11/07 07:11:07;;;;;;;;;;;13.60;70.70;;;;;;5043149;28;87203;-48
2021/11/07 07:13:43;;;;;;;;;;;13.50;70.70;;;;;;5039067;27;89017;-49
2021/11/07 07:16:23;;;;;;;;;;;13.50;70.70;;;;;;5039868;27;90089;-48
2021/11/07 07:21:36;;;;;;;;;;;13.50;70.80;;;;;;5038856;28;87509;-48
2021/11/07 07:26:47;;;;;;;;;;;13.50;70.70;;;;;;5041062;27;87203;-48
2021/11/07 07:34:18;;;;;;;;;;;13.50;70.80;;;;;;5040540;27;89797;-48
2021/11/07 07:36:43;;;;;;;;;;;13.50;70.80;;;;;;5039918;28;88449;-48
2021/11/07 07:39:10;;;;;;;;;;;13.50;70.90;;;;;;5042403;28;88683;-49
2021/11/07 07:41:35;;;;;;;;;;;13.50;70.80;;;;;;5041912;28;88871;-49
2021/11/07 07:44:07;;;;;;;;;;;13.50;70.70;;;;;;5041020;28;87921;-48
2021/11/07 07:46:33;;;;;;;;;;;13.50;70.70;;;;;;5039356;27;87203;-48
2021/11/07 07:48:59;;;;;;;;;;;13.50;70.80;;;;;;5039908;27;88245;-48
2021/11/07 07:51:28;;;;;;;;;;;13.50;70.80;;;;;;5044797;27;89405;-49
2021/11/07 07:53:54;;;;;;;;;;;13.50;70.80;;;;;;5042350;27;89658;-48
2021/11/07 07:56:19;;;;;;;;;;;13.50;70.70;;;;;;5041933;27;90506;-49
2021/11/07 07:58:45;;;;;;;;;;;13.50;70.80;;;;;;5042373;28;87146;-49
2021/11/07 08:01:11;;;;;;;;;;;13.50;70.80;;;;;;5041572;27;89104;-49
2021/11/07 08:03:37;;;;;;;;;;;13.50;70.80;;;;;;5039948;27;88966;-49
2021/11/07 08:06:03;;;;;;;;;;;13.50;70.90;;;;;;5038726;27;87133;-48
2021/11/07 08:08:28;;;;;;;;;;;13.50;70.90;;;;;;5039718;27;88970;-48
2021/11/07 08:10:54;;;;;;;;;;;13.50;70.90;;;;;;5042063;27;89355;-48
2021/11/07 08:13:19;;;;;;;;;;;13.50;71.00;;;;;;5046292;27;86413;-49
2021/11/07 08:15:45;;;;;;;;;;;13.50;71.00;;;;;;5041836;28;87641;-48
2021/11/07 08:18:10;;;;;;;;;;;13.50;71.00;;;;;;5041280;28;87148;-48
2021/11/07 08:20:36;;;;;;;;;;;13.50;71.00;;;;;;5040230;28;88088;-48
2021/11/07 08:23:02;;;;;;;;;;;13.50;71.00;;;;;;5039355;27;88557;-48
2021/11/07 08:25:27;;;;;;;;;;;13.50;71.20;;;;;;5038779;27;87193;-48
2021/11/07 08:27:59;;;;;;;;;;;13.50;71.10;;;;;;5037675;27;87072;-48
2021/11/07 08:30:26;;;;;;;;;;;13.50;71.00;;;;;;5041384;27;88664;-48
2021/11/07 08:32:52;;;;;;;;;;;13.50;71.00;;;;;;5042141;27;87121;-48
2021/11/07 08:35:17;;;;;;;;;;;13.50;70.90;;;;;;5038262;27;88171;-48
2021/11/07 08:40:38;;;;;;;;;;;13.50;71.10;;;;;;5029817;27;88255;-48
2021/11/07 09:02:32;;;;;;;;;;;13.60;71.10;;;;;;5041145;28;87160;-48
2021/11/07 09:05:10;;;;;;;;;;;13.50;71.10;;;;;;5038019;27;89293;-48
2021/11/07 09:07:53;;;;;;;;;;;13.60;71.20;;;;;;5040145;27;87140;-48
2021/11/07 09:10:24;;;;;;;;;;;13.60;71.20;;;;;;5042422;27;88914;-50
2021/11/07 09:12:50;;;;;;;;;;;13.60;71.20;;;;;;5040326;27;90831;-50
2021/11/07 09:15:17;;;;;;;;;;;13.60;71.20;;;;;;5040485;27;87133;-48
2021/11/07 09:17:44;;;;;;;;;;;13.60;71.10;;;;;;5039026;27;87398;-49
2021/11/07 09:20:15;;;;;;;;;;;13.60;71.10;;;;;;5040201;28;88559;-48
2021/11/07 09:22:48;;;;;;;;;;;13.50;71.20;;;;;;5037001;27;89131;-48
2021/11/07 09:25:31;;;;;;;;;;;13.60;71.20;;;;;;5041254;28;89141;-48
2021/11/07 09:28:02;;;;;;;;;;;13.60;71.20;;;;;;5038505;27;87155;-49
2021/11/07 09:30:55;;;;;;;;;;;13.60;71.20;;;;;;5039850;27;88608;-49
2021/11/07 09:33:25;;;;;;;;;;;13.60;71.20;;;;;;5036643;27;88689;-48
2021/11/07 09:38:40;;;;;;;;;;;13.60;71.30;;;;;;5038863;27;88105;-49
2021/11/07 09:44:08;;;;;;;;;;;13.60;71.30;;;;;;5041442;28;87159;-48
2021/11/07 09:46:35;;;;;;;;;;;13.60;71.30;;;;;;5036690;28;88038;-48
2021/11/07 09:49:14;;;;;;;;;;;13.60;71.50;;;;;;5039944;27;87190;-49
2021/11/07 09:51:41;;;;;;;;;;;13.60;71.40;;;;;;5037742;27;88724;-48
2021/11/07 09:54:07;;;;;;;;;;;13.60;71.40;;;;;;5040157;27;88723;-48
2021/11/07 09:56:33;;;;;;;;;;;13.60;71.50;;;;;;5040571;27;86449;-48
2021/11/07 09:59:00;;;;;;;;;;;13.60;71.50;;;;;;5039359;27;88330;-48
2021/11/07 10:01:27;;;;;;;;;;;13.60;71.50;;;;;;5037087;27;88813;-48
2021/11/07 10:03:53;;;;;;;;;;;13.60;71.50;;;;;;5037935;28;89674;-48
2021/11/07 10:06:27;;;;;;;;;;;13.60;71.50;;;;;;5043075;27;90054;-48
2021/11/07 10:08:53;;;;;;;;;;;13.60;71.50;;;;;;5038928;27;88018;-48
2021/11/07 10:11:19;;;;;;;;;;;13.60;71.50;;;;;;5039436;28;88970;-48
2021/11/07 10:13:58;;;;;;;;;;;13.60;71.50;;;;;;5040240;27;90101;-49
2021/11/07 10:16:33;;;;;;;;;;;13.60;71.50;;;;;;5039822;27;88067;-50
2021/11/07 10:19:12;;;;;;;;;;;13.60;71.50;;;;;;5041230;28;88866;-48
2021/11/07 10:21:44;;;;;;;;;;;13.60;71.60;;;;;;5036473;27;87317;-48
2021/11/07 10:24:16;;;;;;;;;;;13.50;75.50;;;;;;5038354;27;87823;-47
2021/11/07 10:26:45;;;;;;;;;;;13.50;74.20;;;;;;5039660;27;89305;-53
2021/11/07 10:29:22;;;;;;;;;;;13.60;77.10;;;;;;5037785;27;88132;-61
2021/11/07 10:32:13;;;;;;;;;;;13.70;77.90;;;;;;5036464;27;88592;-61
2021/11/07 10:35:01;;;;;;;;;;;13.70;78.60;;;;;;5035550;28;88654;-63
2021/11/07 10:53:23;;;;;;;;;;;14.20;78.60;;;;;;5039769;28;87164;-55
2021/11/07 10:55:50;;;;;;;;;;;14.20;77.90;;;;;;5039084;27;90181;-54
2021/11/07 10:58:23;;;;;;;;;;;14.30;78.50;;;;;;5036853;27;87223;-56
2021/11/07 11:00:49;;;;;;;;;;;14.40;78.00;;;;;;5040558;27;87792;-57
2021/11/07 11:03:17;;;;;;;;;;;14.50;78.20;;;;;;5037734;27;88377;-56
2021/11/07 11:06:09;;;;;;;;;;;14.60;78.00;;;;;;5037085;27;87862;-56
2021/11/07 11:08:42;;;;;;;;;;;14.60;78.30;;;;;;5038366;27;88784;-54
2021/11/07 11:29:06;;;;;;;;;;;15.10;71.30;;;;;;5037242;27;88229;-50
2021/11/07 11:34:22;;;;;;;;;;;15.20;71.10;;;;;;5006589;27;87226;-46
2021/11/07 11:36:56;;;;;;;;;;;15.20;70.70;;;;;;5040903;27;88859;-60
2021/11/07 11:39:24;;;;;;;;;;;15.20;70.00;;;;;;5040480;27;86398;-58
2021/11/07 11:41:57;;;;;;;;;;;15.20;70.60;;;;;;5038534;27;87176;-47
2021/11/07 11:44:24;;;;;;;;;;;15.00;71.10;;;;;;5041914;28;89434;-47
2021/11/07 11:47:10;;;;;;;;;;;14.80;71.90;;;;;;5039914;27;88171;-48
2021/11/07 11:49:59;;;;;;;;;;;14.90;72.10;;;;;;5039933;27;89679;-47
2021/11/07 11:52:33;;;;;;;;;;;15.00;71.70;;;;;;5041290;27;89207;-47
2021/11/07 12:02:52;;;;;;;;;;;15.10;71.70;;;;;;5042323;27;87384;-48
2021/11/07 12:05:30;;;;;;;;;;;15.10;71.80;;;;;;5040504;28;88438;-48
2021/11/07 12:10:48;;;;;;;;;;;15.00;71.40;;;;;;5038838;27;87176;-44
2021/11/07 12:13:32;;;;;;;;;;;15.00;71.00;;;;;;5038715;27;90800;-48
2021/11/07 12:16:03;;;;;;;;;;;14.80;72.40;;;;;;5041354;27;87157;-48
2021/11/07 12:18:29;;;;;;;;;;;14.70;73.30;;;;;;5040138;28;89363;-47
2021/11/07 12:20:58;;;;;;;;;;;14.60;73.50;;;;;;5040130;27;89142;-48
2021/11/07 12:23:31;;;;;;;;;;;14.50;73.70;;;;;;5045031;27;87877;-50
2021/11/07 12:25:57;;;;;;;;;;;14.50;73.50;;;;;;5039751;27;88455;-52
2021/11/07 12:28:43;;;;;;;;;;;14.90;72.70;;;;;;5038037;27;87214;-47
2021/11/07 12:31:09;;;;;;;;;;;15.20;70.30;;;;;;5041181;28;86663;-47
2021/11/07 12:33:49;;;;;;;;;;;15.40;69.50;;;;;;5042461;27;87135;-49
2021/11/07 12:41:39;;;;;;;;;;;15.50;69.50;;;;;;5039571;28;87282;-47
2021/11/07 12:44:06;;;;;;;;;;;15.20;71.10;;;;;;5041768;28;87210;-47
2021/11/07 12:49:14;;;;;;;;;;;15.00;72.50;;;;;;5040463;28;87198;-47
2021/11/07 12:51:40;;;;;;;;;;;14.90;72.70;;;;;;5038312;27;88285;-47
2021/11/07 12:54:07;;;;;;;;;;;14.90;72.70;;;;;;5037889;27;89073;-48
2021/11/07 12:56:41;;;;;;;;;;;14.90;72.70;;;;;;5042196;27;86419;-48
2021/11/07 12:59:08;;;;;;;;;;;15.00;72.50;;;;;;5038328;28;88180;-48
2021/11/07 13:01:52;;;;;;;;;;;15.00;72.50;;;;;;5041675;27;89321;-49
2021/11/07 13:04:18;;;;;;;;;;;15.00;72.20;;;;;;5037168;28;88125;-46
2021/11/07 13:06:44;;;;;;;;;;;15.00;72.60;;;;;;5043183;27;89571;-47
2021/11/07 13:09:10;;;;;;;;;;;14.90;72.60;;;;;;5041232;27;87113;-48
2021/11/07 13:11:37;;;;;;;;;;;14.90;72.80;;;;;;5040583;27;87189;-48
2021/11/07 13:14:20;;;;;;;;;;;15.00;72.90;;;;;;5036827;28;89233;-48
2021/11/07 13:17:06;;;;;;;;;;;15.00;72.50;;;;;;5040347;28;87208;-52
2021/11/07 13:19:46;;;;;;;;;;;15.00;72.50;;;;;;5039259;27;88878;-47
2021/11/07 13:22:36;;;;;;;;;;;15.00;72.50;;;;;;5039664;27;87423;-48
2021/11/07 13:25:46;;;;;;;;;;;15.00;72.60;;;;;;5039252;27;87230;-48
2021/11/07 13:27:51;;;;;;;;;;;14.90;73.10;;;;;;5030604;27;88209;-47
2021/11/07 13:30:18;;;;;;;;;;;15.00;72.80;;;;;;5039699;27;90423;-47
2021/11/07 13:32:44;;;;;;;;;;;15.00;72.80;;;;;;5041034;28;88619;-47
2021/11/07 13:35:21;;;;;;;;;;;15.00;72.90;;;;;;5039853;27;89177;-47
2021/11/07 13:37:52;;;;;;;;;;;15.00;73.00;;;;;;5038370;27;87275;-46
2021/11/07 13:40:20;;;;;;;;;;;15.10;73.10;;;;;;5037259;27;88599;-47
2021/11/07 13:42:46;;;;;;;;;;;15.10;73.20;;;;;;5039001;27;89423;-49
2021/11/07 13:45:26;;;;;;;;;;;15.10;73.00;;;;;;5037762;27;87170;-46
2021/11/07 13:47:52;;;;;;;;;;;15.30;70.80;;;;;;5038551;27;88195;-52
2021/11/07 13:50:20;;;;;;;;;;;15.40;70.40;;;;;;5036957;28;87482;-46
2021/11/07 13:52:46;;;;;;;;;;;15.50;69.50;;;;;;5044301;27;87302;-58
2021/11/07 13:55:16;;;;;;;;;;;15.50;69.80;;;;;;5038783;28;88645;-48
2021/11/07 13:57:42;;;;;;;;;;;15.70;69.20;;;;;;5039210;27;87150;-60
2021/11/07 14:00:10;;;;;;;;;;;15.80;69.80;;;;;;5037976;27;87151;-57
2021/11/07 14:02:35;;;;;;;;;;;15.80;69.70;;;;;;5040245;27;89556;-57
2021/11/07 14:05:01;;;;;;;;;;;15.60;71.10;;;;;;5040403;28;87131;-58
2021/11/07 14:07:28;;;;;;;;;;;15.60;71.60;;;;;;5039191;28;87526;-57
2021/11/07 14:09:58;;;;;;;;;;;15.60;72.10;;;;;;5037035;27;88273;-58
2021/11/07 14:12:36;;;;;;;;;;;15.60;72.10;;;;;;5038083;27;86405;-58
2021/11/07 14:15:22;;;;;;;;;;;15.60;72.30;;;;;;5040067;27;88255;-57
2021/11/07 14:17:50;;;;;;;;;;;15.60;72.40;;;;;;5039460;28;88918;-58
2021/11/07 14:20:36;;;;;;;;;;;15.50;72.20;;;;;;5037115;27;89603;-57
2021/11/07 14:23:17;;;;;;;;;;;15.50;72.30;;;;;;5021637;28;89402;-56
2021/11/07 14:25:46;;;;;;;;;;;15.60;72.40;;;;;;5036611;27;88011;-57
2021/11/07 14:28:20;;;;;;;;;;;15.50;71.40;;;;;;5036967;27;89042;-56
2021/11/07 14:30:46;;;;;;;;;;;15.40;72.20;;;;;;5037095;27;89649;-57
2021/11/07 14:33:20;;;;;;;;;;;15.40;70.30;;;;;;5038225;27;87581;-53
2021/11/07 14:35:49;;;;;;;;;;;15.60;72.10;;;;;;5040280;28;88739;-55
2021/11/07 14:38:25;;;;;;;;;;;15.60;71.10;;;;;;5040185;27;88581;-52
2021/11/07 14:41:05;;;;;;;;;;;15.50;70.90;;;;;;5036996;27;88243;-50
2021/11/07 14:43:36;;;;;;;;;;;15.40;71.50;;;;;;5036081;27;89510;-59
2021/11/07 14:46:19;;;;;;;;;;;15.50;68.90;;;;;;5035662;27;88101;-48
2021/11/07 14:49:03;;;;;;;;;;;15.50;70.50;;;;;;5038100;27;87985;-57
2021/11/07 15:02:20;;;;;;;;;;;15.60;73.50;;;;;;5036551;27;87344;-56
2021/11/07 15:04:53;;;;;;;;;;;15.50;72.50;;;;;;5039779;27;89037;-56
2021/11/07 15:08:10;;;;;;;;;;;15.50;72.60;;;;;;5037207;27;87190;-56
2021/11/07 15:16:24;;;;;;;;;;;15.50;72.40;;;;;;5041763;27;87249;-56
2021/11/07 15:21:29;;;;;;;;;;;15.70;71.80;;;;;;5039678;27;88598;-56
2021/11/07 15:24:04;;;;;;;;;;;15.60;71.70;;;;;;5044344;27;87969;-56
2021/11/07 15:26:33;;;;;;;;;;;15.70;71.40;;;;;;5038673;27;89648;-58
2021/11/07 15:29:11;;;;;;;;;;;15.70;71.80;;;;;;5041966;27;87482;-53
2021/11/07 15:31:37;;;;;;;;;;;15.60;71.80;;;;;;5040171;27;88689;-47
2021/11/07 15:34:08;;;;;;;;;;;15.50;71.80;;;;;;5039894;27;88983;-48
2021/11/07 15:36:36;;;;;;;;;;;15.60;72.00;;;;;;5041922;27;87222;-47
2021/11/07 15:39:07;;;;;;;;;;;15.60;71.60;;;;;;5038831;27;89419;-47
2021/11/07 15:41:34;;;;;;;;;;;15.60;71.60;;;;;;5042684;27;89198;-48
2021/11/07 15:44:01;;;;;;;;;;;15.70;71.60;;;;;;5041854;28;87161;-48
2021/11/07 15:46:26;;;;;;;;;;;15.70;71.50;;;;;;5044567;27;87243;-57
2021/11/07 15:48:52;;;;;;;;;;;15.60;71.30;;;;;;5042148;27;87189;-61
2021/11/07 15:56:37;;;;;;;;;;;15.60;71.80;;;;;;5041912;27;86439;-61
2021/11/07 16:04:24;;;;;;;;;;;15.50;71.70;;;;;;5041456;27;88090;-59
2021/11/07 16:07:12;;;;;;;;;;;15.60;71.00;;;;;;5042441;27;89341;-60
2021/11/07 16:17:31;;;;;;;;;;;15.80;68.90;;;;;;5040092;28;87158;-59
2021/11/07 16:19:59;;;;;;;;;;;15.80;69.00;;;;;;5038963;28;89114;-63
2021/11/07 16:22:25;;;;;;;;;;;15.80;69.40;;;;;;5039501;27;88633;-58
2021/11/07 16:24:51;;;;;;;;;;;15.80;69.70;;;;;;5040075;28;87242;-58
2021/11/07 16:27:20;;;;;;;;;;;15.80;70.50;;;;;;5039136;28;88772;-57
2021/11/07 16:29:46;;;;;;;;;;;15.70;71.00;;;;;;5040905;27;90299;-54
2021/11/07 16:32:19;;;;;;;;;;;15.70;71.30;;;;;;5041792;28;87964;-53
2021/11/07 16:34:50;;;;;;;;;;;15.80;71.30;;;;;;5041525;27;88191;-58
2021/11/07 16:37:22;;;;;;;;;;;15.80;71.40;;;;;;5041956;27;88793;-58
2021/11/07 16:39:59;;;;;;;;;;;15.80;71.50;;;;;;5041672;27;88638;-63
2021/11/07 16:42:25;;;;;;;;;;;15.80;72.10;;;;;;5039612;28;88422;-63
2021/11/07 16:44:50;;;;;;;;;;;15.90;71.80;;;;;;5040793;27;87115;-66
2021/11/07 16:47:19;;;;;;;;;;;15.90;71.80;;;;;;5040525;28;87591;-59
2021/11/07 16:49:45;;;;;;;;;;;15.90;72.00;;;;;;5042361;27;88274;-65
2021/11/07 16:52:20;;;;;;;;;;;16.00;71.30;;;;;;5040994;27;87159;-60
2021/11/07 16:55:05;;;;;;;;;;;16.00;71.40;;;;;;5042772;27;89251;-59
2021/11/07 16:57:33;;;;;;;;;;;16.00;71.40;;;;;;5040255;28;87224;-59
2021/11/07 17:00:14;;;;;;;;;;;15.90;71.80;;;;;;5038412;28;89067;-61
2021/11/07 17:06:01;;;;;;;;;;;16.00;72.10;;;;;;5038763;27;88820;-66
2021/11/07 17:10:28;;;;;;;;;;;15.90;72.40;;;;;;5038310;27;88027;-63
2021/11/07 17:13:01;;;;;;;;;;;15.90;72.10;;;;;;5038118;28;86476;-64
2021/11/07 17:15:49;;;;;;;;;;;15.90;72.40;;;;;;5042864;28;88411;-59